createdAt,value
2018-08-06T00:00:47.947Z,99.90
2018-08-06T00:03:45.575Z,99.90
2018-08-06T00:06:43.111Z,99.90
2018-08-06T00:09:41.007Z,99.90
2018-08-06T00:15:29.304Z,99.90
2018-08-06T00:18:27.895Z,99.90
2018-08-06T00:21:25.995Z,99.90
2018-08-06T00:24:23.866Z,99.90
2018-08-06T00:27:21.607Z,99.90
2018-08-06T00:30:21.379Z,99.90
2018-08-06T00:33:19.302Z,99.90
2018-08-06T00:36:17.014Z,99.90
2018-08-06T00:39:14.657Z,99.90
2018-08-06T00:42:12.625Z,99.90
2018-08-06T00:45:10.275Z,99.90
2018-08-06T00:48:07.939Z,99.90
2018-08-06T00:51:05.805Z,99.90
2018-08-06T00:54:03.693Z,99.90
2018-08-06T00:57:01.483Z,99.90
2018-08-06T00:59:59.187Z,99.90
2018-08-06T01:05:46.691Z,99.90
2018-08-06T01:08:44.663Z,99.90
2018-08-06T01:11:42.627Z,99.90
2018-08-06T01:14:40.654Z,99.90
2018-08-06T01:17:38.574Z,99.90
2018-08-06T01:20:36.370Z,99.90
2018-08-06T01:23:34.207Z,99.90
2018-08-06T01:26:31.995Z,99.90
2018-08-06T01:29:29.695Z,99.90
2018-08-06T01:32:27.283Z,99.90
2018-08-06T01:35:24.750Z,99.90
2018-08-06T01:38:22.263Z,99.90
2018-08-06T01:41:19.875Z,99.90
2018-08-06T01:44:17.472Z,99.90
2018-08-06T01:47:15.005Z,99.90
2018-08-06T01:50:12.687Z,99.90
2018-08-06T01:53:10.398Z,99.90
2018-08-06T01:56:08.066Z,99.90
2018-08-06T01:59:06.983Z,99.90
2018-08-06T02:04:55.238Z,99.90
2018-08-06T02:07:52.851Z,99.90
2018-08-06T02:10:50.460Z,99.90
2018-08-06T02:13:48.365Z,99.90
2018-08-06T02:16:46.053Z,99.90
2018-08-06T02:19:43.803Z,99.90
2018-08-06T02:22:41.992Z,99.90
2018-08-06T02:25:39.832Z,99.90
2018-08-06T02:28:37.639Z,99.90
2018-08-06T02:31:35.591Z,99.90
2018-08-06T02:37:23.113Z,99.90
2018-08-06T02:43:10.671Z,99.90
2018-08-06T02:46:08.250Z,99.90
2018-08-06T02:49:06.069Z,99.90
2018-08-06T02:52:03.881Z,99.90
2018-08-06T02:55:01.795Z,99.90
2018-08-06T02:57:59.644Z,99.90
2018-08-06T03:00:57.310Z,99.90
2018-08-06T03:03:56.018Z,99.90
2018-08-06T03:06:53.760Z,99.90
2018-08-06T03:12:41.309Z,99.90
2018-08-06T03:15:39.227Z,99.90
2018-08-06T03:18:37.186Z,99.90
2018-08-06T03:21:35.130Z,99.90
2018-08-06T03:24:32.923Z,99.90
2018-08-06T03:27:30.756Z,99.90
2018-08-06T03:30:30.518Z,99.90
2018-08-06T03:33:28.319Z,99.90
2018-08-06T03:36:26.180Z,99.90
2018-08-06T03:39:23.876Z,99.90
2018-08-06T03:45:11.431Z,99.90
2018-08-06T03:48:09.595Z,99.90
2018-08-06T03:51:06.935Z,99.90
2018-08-06T03:54:04.889Z,99.90
2018-08-06T03:57:02.541Z,99.90
2018-08-06T04:00:00.059Z,99.90
2018-08-06T04:02:57.708Z,99.90
2018-08-06T04:05:55.389Z,99.90
2018-08-06T04:08:53.011Z,99.90
2018-08-06T04:11:50.690Z,99.90
2018-08-06T04:14:48.508Z,99.90
2018-08-06T04:17:48.161Z,99.90
2018-08-06T04:20:46.055Z,99.90
2018-08-06T04:23:43.851Z,99.90
2018-08-06T04:26:41.562Z,99.90
2018-08-06T04:29:39.443Z,99.90
2018-08-06T04:32:36.892Z,99.90
2018-08-06T04:35:34.668Z,99.90
2018-08-06T04:38:32.435Z,99.90
2018-08-06T04:41:30.159Z,99.90
2018-08-06T04:47:17.670Z,99.90
2018-08-06T04:50:15.464Z,99.90
2018-08-06T04:53:13.291Z,99.90
2018-08-06T04:56:10.947Z,99.90
2018-08-06T04:59:09.442Z,99.90
2018-08-06T05:02:07.071Z,99.90
2018-08-06T05:05:04.890Z,99.90
2018-08-06T05:08:02.628Z,99.90
2018-08-06T05:11:00.232Z,99.90
2018-08-06T05:13:57.947Z,99.90
2018-08-06T05:16:55.676Z,99.90
2018-08-06T05:19:53.480Z,99.90
2018-08-06T05:22:50.864Z,99.90
2018-08-06T05:25:48.483Z,99.90
2018-08-06T05:28:48.294Z,99.90
2018-08-06T05:31:46.159Z,99.90
2018-08-06T05:34:44.084Z,99.90
2018-08-06T05:37:41.789Z,99.90
2018-08-06T05:40:39.637Z,99.90
2018-08-06T05:43:37.559Z,99.90
2018-08-06T05:46:35.260Z,99.90
2018-08-06T05:49:33.200Z,99.90
2018-08-06T05:52:30.915Z,99.90
2018-08-06T05:55:29.578Z,99.90
2018-08-06T05:58:27.280Z,99.90
2018-08-06T06:01:25.803Z,99.90
2018-08-06T06:04:23.638Z,99.90
2018-08-06T06:07:21.634Z,99.90
2018-08-06T06:15:59.810Z,99.90
2018-08-06T06:18:57.728Z,99.90
2018-08-06T06:21:55.472Z,99.90
2018-08-06T06:24:53.218Z,99.90
2018-08-06T06:27:52.079Z,99.90
2018-08-06T06:30:49.883Z,99.90
2018-08-06T06:33:47.510Z,99.90
2018-08-06T06:36:45.462Z,99.90
2018-08-06T06:39:43.188Z,99.90
2018-08-06T06:42:40.954Z,99.90
2018-08-06T06:45:38.802Z,99.90
2018-08-06T06:48:36.619Z,99.90
2018-08-06T06:51:34.259Z,99.90
2018-08-06T06:54:31.972Z,99.90
2018-08-06T07:00:22.291Z,98.60
2018-08-06T07:03:20.761Z,97.70
2018-08-06T07:06:18.309Z,95.80
2018-08-06T07:09:17.164Z,95.50
2018-08-06T07:12:15.000Z,94.90
2018-08-06T07:15:13.162Z,93.00
2018-08-06T07:18:11.653Z,91.80
2018-08-06T07:21:09.194Z,91.30
2018-08-06T07:24:07.897Z,90.70
2018-08-06T07:27:11.931Z,86.50
2018-08-06T07:30:09.740Z,86.10
2018-08-06T07:33:07.202Z,81.00
2018-08-06T07:36:05.824Z,81.80
2018-08-06T07:39:03.566Z,81.10
2018-08-06T07:44:52.090Z,87.30
2018-08-06T07:47:49.803Z,87.10
2018-08-06T07:50:47.506Z,87.10
2018-08-06T07:53:45.351Z,85.00
2018-08-06T07:56:42.931Z,82.00
2018-08-06T07:59:40.592Z,82.10
2018-08-06T08:02:38.383Z,82.80
2018-08-06T08:05:36.191Z,83.10
2018-08-06T08:08:33.992Z,80.60
2018-08-06T08:11:31.671Z,78.80
2018-08-06T08:17:19.894Z,78.30
2018-08-06T08:20:19.844Z,76.50
2018-08-06T08:23:17.440Z,77.50
2018-08-06T08:26:15.194Z,75.20
2018-08-06T08:29:12.979Z,75.20
2018-08-06T08:32:10.602Z,76.10
2018-08-06T08:35:08.450Z,76.00
2018-08-06T08:38:06.225Z,73.90
2018-08-06T08:41:04.096Z,71.10
2018-08-06T08:44:01.858Z,72.30
2018-08-06T08:46:59.643Z,72.20
2018-08-06T08:49:57.541Z,73.20
2018-08-06T08:52:55.590Z,70.00
2018-08-06T08:58:45.432Z,66.70
2018-08-06T09:01:42.567Z,67.00
2018-08-06T09:04:40.216Z,66.00
2018-08-06T09:07:39.013Z,70.40
2018-08-06T09:13:26.208Z,65.00
2018-08-06T09:16:24.875Z,65.90
2018-08-06T09:19:22.705Z,66.10
2018-08-06T09:22:20.353Z,66.70
2018-08-06T09:25:21.085Z,68.80
2018-08-06T09:28:18.778Z,67.50
2018-08-06T09:31:16.335Z,66.10
2018-08-06T09:34:15.285Z,65.10
2018-08-06T09:37:14.026Z,64.70
2018-08-06T09:40:11.707Z,62.70
2018-08-06T09:45:59.865Z,61.90
2018-08-06T09:48:57.685Z,60.70
2018-08-06T09:51:56.337Z,60.90
2018-08-06T09:57:45.418Z,60.50
2018-08-06T10:00:47.104Z,61.10
2018-08-06T10:03:44.738Z,61.40
2018-08-06T10:06:42.826Z,61.50
2018-08-06T10:09:40.769Z,60.80
2018-08-06T10:12:38.450Z,60.30
2018-08-06T10:15:36.172Z,59.20
2018-08-06T10:18:33.835Z,58.80
2018-08-06T10:21:33.495Z,58.00
2018-08-06T10:24:31.037Z,59.10
2018-08-06T10:27:28.562Z,58.30
2018-08-06T10:30:30.068Z,59.20
2018-08-06T10:36:18.026Z,58.20
2018-08-06T10:39:15.606Z,58.60
2018-08-06T10:42:13.210Z,59.40
2018-08-06T10:45:10.797Z,59.40
2018-08-06T10:48:08.281Z,59.00
2018-08-06T10:51:05.857Z,59.60
2018-08-06T10:54:03.552Z,60.80
2018-08-06T10:59:51.595Z,63.20
2018-08-06T11:02:49.271Z,64.00
2018-08-06T11:05:46.800Z,64.80
2018-08-06T11:08:44.626Z,65.20
2018-08-06T11:11:43.281Z,65.60
2018-08-06T11:14:40.722Z,66.30
2018-08-06T11:17:39.371Z,64.80
2018-08-06T11:20:36.935Z,63.60
2018-08-06T11:23:34.649Z,63.80
2018-08-06T11:26:32.217Z,64.80
2018-08-06T11:29:29.702Z,65.30
2018-08-06T11:32:27.191Z,65.10
2018-08-06T11:35:26.045Z,64.60
2018-08-06T11:41:13.664Z,64.80
2018-08-06T11:44:12.045Z,63.50
2018-08-06T11:47:09.479Z,62.30
2018-08-06T11:50:07.253Z,63.10
2018-08-06T11:53:04.934Z,63.70
2018-08-06T11:56:02.732Z,63.50
2018-08-06T11:59:00.546Z,63.60
2018-08-06T12:01:58.095Z,63.40
2018-08-06T12:04:56.653Z,63.10
2018-08-06T12:10:43.994Z,61.90
2018-08-06T12:13:41.755Z,62.10
2018-08-06T12:16:40.435Z,61.30
2018-08-06T12:19:38.058Z,61.40
2018-08-06T12:22:35.747Z,62.50
2018-08-06T12:25:34.476Z,62.40
2018-08-06T12:28:31.904Z,62.40
2018-08-06T12:31:29.681Z,63.00
2018-08-06T12:34:26.887Z,62.90
2018-08-06T12:37:24.318Z,61.50
2018-08-06T12:40:24.913Z,60.70
2018-08-06T12:43:22.642Z,60.60
2018-08-06T12:46:20.239Z,60.80
2018-08-06T12:49:18.015Z,61.60
2018-08-06T12:52:16.894Z,62.30
2018-08-06T12:55:15.620Z,61.70
2018-08-06T12:58:13.281Z,61.80
2018-08-06T13:01:10.979Z,60.60
2018-08-06T13:04:08.519Z,60.30
2018-08-06T13:07:06.232Z,61.10
2018-08-06T13:10:03.807Z,61.90
2018-08-06T13:13:01.478Z,61.50
2018-08-06T13:15:59.170Z,62.30
2018-08-06T13:18:57.332Z,61.00
2018-08-06T13:21:55.415Z,60.60
2018-08-06T13:24:53.108Z,60.30
2018-08-06T13:27:50.622Z,60.10
2018-08-06T13:30:49.459Z,59.70
2018-08-06T13:33:47.376Z,60.80
2018-08-06T13:36:44.900Z,60.30
2018-08-06T13:39:42.581Z,60.70
2018-08-06T13:42:40.197Z,60.60
2018-08-06T13:45:37.805Z,61.50
2018-08-06T13:48:35.574Z,60.90
2018-08-06T13:51:34.397Z,62.40
2018-08-06T13:54:31.654Z,62.70
2018-08-06T13:57:29.341Z,62.10
2018-08-06T14:00:29.815Z,62.50
2018-08-06T14:03:27.349Z,62.70
2018-08-06T14:06:24.922Z,62.80
2018-08-06T14:09:23.454Z,64.10
2018-08-06T14:12:21.117Z,65.70
2018-08-06T14:15:19.790Z,66.20
2018-08-06T14:18:17.413Z,65.90
2018-08-06T14:21:15.053Z,66.10
2018-08-06T14:24:12.669Z,66.50
2018-08-06T14:27:10.179Z,66.80
2018-08-06T14:30:07.845Z,67.40
2018-08-06T14:33:06.674Z,67.40
2018-08-06T14:36:05.218Z,67.00
2018-08-06T14:39:02.880Z,66.70
2018-08-06T14:42:01.255Z,65.60
2018-08-06T14:44:59.011Z,65.50
2018-08-06T14:47:57.623Z,66.00
2018-08-06T14:50:55.395Z,66.60
2018-08-06T14:53:53.008Z,66.50
2018-08-06T14:59:41.967Z,67.10
2018-08-06T15:05:30.929Z,67.20
2018-08-06T15:08:28.614Z,67.50
2018-08-06T15:11:26.137Z,68.10
2018-08-06T15:14:23.662Z,69.00
2018-08-06T15:17:21.552Z,70.40
2018-08-06T15:20:21.282Z,70.40
2018-08-06T15:26:08.382Z,71.70
2018-08-06T15:29:06.462Z,72.20
2018-08-06T15:32:04.409Z,71.50
2018-08-06T15:35:02.215Z,72.40
2018-08-06T15:38:00.745Z,72.40
2018-08-06T15:40:59.542Z,73.10
2018-08-06T15:43:57.211Z,73.70
2018-08-06T15:46:54.951Z,73.90
2018-08-06T15:49:52.677Z,74.20
2018-08-06T15:52:50.170Z,75.10
2018-08-06T15:55:47.796Z,75.90
2018-08-06T15:58:45.369Z,76.60
2018-08-06T16:01:42.922Z,77.10
2018-08-06T16:04:41.452Z,77.60
2018-08-06T16:07:39.115Z,78.20
2018-08-06T16:10:36.620Z,79.30
2018-08-06T16:13:34.449Z,79.10
2018-08-06T16:16:32.381Z,79.10
2018-08-06T16:19:29.687Z,79.30
2018-08-06T16:22:27.288Z,79.30
2018-08-06T16:25:25.983Z,79.90
2018-08-06T16:28:24.576Z,80.50
2018-08-06T16:31:22.338Z,80.00
2018-08-06T16:34:20.298Z,80.00
2018-08-06T16:37:17.527Z,79.80
2018-08-06T16:40:15.268Z,79.20
2018-08-06T16:43:12.831Z,78.60
2018-08-06T16:46:10.442Z,79.10
2018-08-06T16:51:58.514Z,80.00
2018-08-06T16:54:56.096Z,80.40
2018-08-06T16:57:53.879Z,81.10
2018-08-06T17:00:51.616Z,81.80
2018-08-06T17:06:40.077Z,82.70
2018-08-06T17:09:37.884Z,83.40
2018-08-06T17:12:35.516Z,83.80
2018-08-06T17:15:33.155Z,84.10
2018-08-06T17:18:30.972Z,84.40
2018-08-06T17:21:29.691Z,84.40
2018-08-06T17:24:27.568Z,84.70
2018-08-06T17:27:25.078Z,85.20
2018-08-06T17:30:24.715Z,85.50
2018-08-06T17:33:22.465Z,86.00
2018-08-06T17:36:20.132Z,86.40
2018-08-06T17:39:18.903Z,87.00
2018-08-06T17:42:16.739Z,87.50
2018-08-06T17:45:14.479Z,87.90
2018-08-06T17:48:12.447Z,88.60
2018-08-06T17:51:10.175Z,89.00
2018-08-06T17:54:07.846Z,89.80
2018-08-06T17:59:57.297Z,90.50
2018-08-06T18:02:55.663Z,90.80
2018-08-06T18:05:54.015Z,90.90
2018-08-06T18:08:51.832Z,91.10
2018-08-06T18:11:49.110Z,91.50
2018-08-06T18:14:46.848Z,91.80
2018-08-06T18:17:45.670Z,91.90
2018-08-06T18:20:43.599Z,92.00
2018-08-06T18:58:43.388Z,94.20
2018-08-06T19:01:41.157Z,94.40
2018-08-06T19:04:39.174Z,94.60
2018-08-06T19:07:37.904Z,94.70
2018-08-06T19:10:35.995Z,94.70
2018-08-06T19:13:39.408Z,94.80
2018-08-06T19:16:37.298Z,94.80
2018-08-06T19:19:36.132Z,95.00
2018-08-06T19:22:34.790Z,95.00
2018-08-06T19:25:35.789Z,95.20
2018-08-06T19:28:33.494Z,95.20
2018-08-06T19:31:33.285Z,95.00
2018-08-06T19:34:31.092Z,94.90
2018-08-06T19:40:25.349Z,95.20
2018-08-06T19:43:29.235Z,95.10
2018-08-06T19:46:27.030Z,95.40
2018-08-06T19:49:30.686Z,95.50
2018-08-06T19:52:29.464Z,95.60
2018-08-06T19:55:34.494Z,95.80
2018-08-06T19:58:32.200Z,95.90
2018-08-06T20:01:30.018Z,96.10
2018-08-06T20:04:27.575Z,96.30
2018-08-06T20:07:25.318Z,96.40
2018-08-06T20:10:23.931Z,96.60
2018-08-06T20:13:21.802Z,96.90
2018-08-06T20:16:19.728Z,97.10
2018-08-06T20:19:17.547Z,97.20
2018-08-06T20:22:16.172Z,97.60
2018-08-06T20:25:13.742Z,97.90
2018-08-06T20:28:11.324Z,98.10
2018-08-06T20:31:09.034Z,98.20
2018-08-06T20:34:06.736Z,98.50
2018-08-06T20:37:04.518Z,98.70
2018-08-06T20:40:02.115Z,98.90
2018-08-06T20:42:59.878Z,99.20
2018-08-06T20:45:57.707Z,99.40
2018-08-06T20:48:55.399Z,99.40
2018-08-06T20:51:53.229Z,99.80
2018-08-06T20:54:50.975Z,99.90
2018-08-06T20:57:49.873Z,99.90
2018-08-06T21:00:47.635Z,99.90
2018-08-06T21:06:34.847Z,99.90
2018-08-06T21:09:32.524Z,99.90
2018-08-06T21:12:30.176Z,99.90
2018-08-06T21:15:29.810Z,99.90
2018-08-06T21:18:27.535Z,99.90
2018-08-06T21:21:25.418Z,99.90
2018-08-06T21:24:24.494Z,99.90
2018-08-06T21:27:22.231Z,99.90
2018-08-06T21:30:23.143Z,99.90
2018-08-06T21:33:21.037Z,99.90
2018-08-06T21:36:19.170Z,99.90
2018-08-06T21:39:18.272Z,99.90
2018-08-06T21:42:16.058Z,99.90
2018-08-06T21:45:13.972Z,99.90
2018-08-06T21:48:11.925Z,99.90
2018-08-06T21:51:09.730Z,99.90
2018-08-06T21:54:07.663Z,99.90
2018-08-06T21:57:05.300Z,99.90
2018-08-06T22:00:03.549Z,99.90
2018-08-06T22:03:01.366Z,99.90
2018-08-06T22:06:01.266Z,99.90
2018-08-06T22:09:00.018Z,99.90
2018-08-06T22:11:57.720Z,99.90
2018-08-06T22:14:55.744Z,99.90
2018-08-06T22:17:53.412Z,99.90
2018-08-06T22:20:51.027Z,99.90
2018-08-06T22:23:48.763Z,99.90
2018-08-06T22:26:46.419Z,99.90
2018-08-06T22:29:44.059Z,99.90
2018-08-06T22:32:41.889Z,99.90
2018-08-06T22:35:39.599Z,99.90
2018-08-06T22:38:37.328Z,99.90
2018-08-06T22:41:35.077Z,99.90
2018-08-06T22:44:32.964Z,99.90
2018-08-06T22:47:30.699Z,99.90
2018-08-06T22:50:29.674Z,99.90
2018-08-06T22:53:27.548Z,99.90
2018-08-06T22:56:26.203Z,99.90
2018-08-06T22:59:23.927Z,99.90
2018-08-06T23:02:21.418Z,99.90
2018-08-06T23:05:19.979Z,99.90
2018-08-06T23:08:17.639Z,99.90
2018-08-06T23:11:15.641Z,99.90
2018-08-06T23:14:13.254Z,99.90
2018-08-06T23:17:11.163Z,99.90
2018-08-06T23:20:08.742Z,99.90
2018-08-06T23:23:06.430Z,99.90
2018-08-06T23:26:04.285Z,99.90
2018-08-06T23:31:51.759Z,99.90
2018-08-06T23:34:49.480Z,99.90
2018-08-06T23:37:48.061Z,99.90
2018-08-06T23:40:45.868Z,99.90
2018-08-06T23:43:43.592Z,99.90
2018-08-06T23:46:41.319Z,99.90
2018-08-06T23:49:39.169Z,99.90
2018-08-06T23:52:38.019Z,99.90
2018-08-06T23:55:36.684Z,99.90
2018-08-06T23:58:34.654Z,99.90
